createdAt,value
2024-03-12T00:00:16.714Z,100730.13
2024-03-12T00:02:45.706Z,100733.88
2024-03-12T00:05:16.775Z,100726.44
2024-03-12T00:07:44.078Z,100734.25
2024-03-12T00:10:16.168Z,100736.84
2024-03-12T00:12:48.776Z,100740.94
2024-03-12T00:15:19.243Z,100746.16
2024-03-12T00:17:46.000Z,100743.56
2024-03-12T00:20:19.604Z,100745.41
2024-03-12T00:22:48.384Z,100742.06
2024-03-12T00:25:15.947Z,100745.78
2024-03-12T00:27:43.204Z,100735.34
2024-03-12T00:30:10.839Z,100740.94
2024-03-12T00:32:40.379Z,100742.44
2024-03-12T00:35:07.881Z,100745.78
2024-03-12T00:37:34.529Z,100740.59
2024-03-12T00:40:01.168Z,100745.78
2024-03-12T00:42:27.806Z,100748.00
2024-03-12T00:44:54.293Z,100753.25
2024-03-12T00:47:23.198Z,100758.09
2024-03-12T00:49:51.840Z,100754.34
2024-03-12T00:52:18.939Z,100759.94
2024-03-12T00:54:47.061Z,100762.16
2024-03-12T00:57:14.484Z,100768.09
2024-03-12T00:59:42.218Z,100763.66
2024-03-12T01:02:11.491Z,100756.19
2024-03-12T01:04:41.301Z,100756.56
2024-03-12T01:07:12.041Z,100757.69
2024-03-12T01:09:40.618Z,100765.09
2024-03-12T01:12:10.373Z,100762.16
2024-03-12T01:14:38.130Z,100768.06
2024-03-12T01:17:07.904Z,100767.38
2024-03-12T01:19:37.640Z,100763.66
2024-03-12T01:22:06.969Z,100761.41
2024-03-12T01:24:35.038Z,100766.63
2024-03-12T01:27:02.070Z,100770.31
2024-03-12T01:29:28.718Z,100766.63
2024-03-12T01:31:56.257Z,100764.41
2024-03-12T01:34:23.752Z,100768.47
2024-03-12T01:36:50.738Z,100774.09
2024-03-12T01:39:17.630Z,100767.34
2024-03-12T01:41:45.873Z,100768.88
2024-03-12T01:44:12.825Z,100769.59
2024-03-12T01:46:39.390Z,100773.31
2024-03-12T01:49:06.350Z,100769.59
2024-03-12T01:51:33.165Z,100773.28
2024-03-12T01:53:59.671Z,100768.47
2024-03-12T01:56:26.155Z,100769.22
2024-03-12T01:58:52.755Z,100780.03
2024-03-12T02:01:22.365Z,100775.53
2024-03-12T02:03:49.807Z,100781.50
2024-03-12T02:06:16.346Z,100786.72
2024-03-12T02:08:42.808Z,100784.50
2024-03-12T02:11:09.629Z,100777.81
2024-03-12T02:13:36.555Z,100781.50
2024-03-12T02:16:03.305Z,100779.28
2024-03-12T02:18:29.888Z,100788.56
2024-03-12T02:20:56.382Z,100797.50
2024-03-12T02:23:34.902Z,100803.47
2024-03-12T02:26:01.349Z,100806.06
2024-03-12T02:28:27.792Z,100810.53
2024-03-12T02:30:54.364Z,100811.28
2024-03-12T02:33:21.472Z,100806.44
2024-03-12T02:35:47.931Z,100810.16
2024-03-12T02:38:14.391Z,100815.78
2024-03-12T02:40:40.881Z,100808.69
2024-03-12T02:43:07.471Z,100811.66
2024-03-12T02:45:34.792Z,100809.78
2024-03-12T02:48:01.340Z,100813.50
2024-03-12T02:50:30.792Z,100810.88
2024-03-12T02:52:57.275Z,100818.69
2024-03-12T02:55:24.058Z,100812.38
2024-03-12T02:57:50.558Z,100814.63
2024-03-12T03:00:18.388Z,100824.63
2024-03-12T03:02:45.532Z,100818.28
2024-03-12T03:05:13.159Z,100820.16
2024-03-12T03:07:41.422Z,100825.75
2024-03-12T03:10:08.207Z,100827.19
2024-03-12T03:12:34.743Z,100822.75
2024-03-12T03:15:01.284Z,100832.81
2024-03-12T03:17:27.739Z,100821.63
2024-03-12T03:19:54.296Z,100826.06
2024-03-12T03:22:20.808Z,100823.06
2024-03-12T03:24:47.609Z,100826.41
2024-03-12T03:27:14.249Z,100830.91
2024-03-12T03:29:40.716Z,100829.47
2024-03-12T03:32:08.002Z,100821.97
2024-03-12T03:34:34.537Z,100834.28
2024-03-12T03:37:01.102Z,100832.78
2024-03-12T03:39:27.839Z,100835.34
2024-03-12T03:41:56.223Z,100829.78
2024-03-12T03:44:23.512Z,100831.69
2024-03-12T03:46:50.202Z,100836.84
2024-03-12T03:49:16.718Z,100840.19
2024-03-12T03:51:43.389Z,100842.41
2024-03-12T03:54:10.465Z,100846.88
2024-03-12T03:56:36.954Z,100850.66
2024-03-12T03:59:06.322Z,100848.75
2024-03-12T04:01:32.955Z,100852.47
2024-03-12T04:03:59.718Z,100855.88
2024-03-12T04:06:26.649Z,100850.22
2024-03-12T04:08:55.907Z,100857.25
2024-03-12T04:11:22.441Z,100863.63
2024-03-12T04:13:48.947Z,100861.78
2024-03-12T04:16:16.182Z,100866.63
2024-03-12T04:18:45.596Z,100874.44
2024-03-12T04:21:14.959Z,100881.13
2024-03-12T04:23:43.655Z,100886.00
2024-03-12T04:26:10.212Z,100888.19
2024-03-12T04:28:39.910Z,100885.22
2024-03-12T04:31:09.352Z,100888.97
2024-03-12T04:33:35.888Z,100886.72
2024-03-12T04:36:02.393Z,100886.38
2024-03-12T04:38:31.328Z,100890.06
2024-03-12T04:40:57.803Z,100893.78
2024-03-12T04:43:24.240Z,100894.56
2024-03-12T04:45:50.714Z,100895.31
2024-03-12T04:48:17.190Z,100896.78
2024-03-12T04:50:43.749Z,100900.50
2024-03-12T04:53:10.429Z,100907.97
2024-03-12T04:55:40.203Z,100909.41
2024-03-12T04:58:06.954Z,100917.59
2024-03-12T05:00:33.632Z,100904.97
2024-03-12T05:03:01.232Z,100911.66
2024-03-12T05:05:27.722Z,100909.81
2024-03-12T05:07:54.174Z,100921.00
2024-03-12T05:10:25.388Z,100919.50
2024-03-12T05:12:52.540Z,100920.59
2024-03-12T05:15:19.176Z,100918.41
2024-03-12T05:17:49.641Z,100931.78
2024-03-12T05:20:18.493Z,100934.03
2024-03-12T05:22:47.031Z,100938.06
2024-03-12T05:25:37.118Z,100938.44
2024-03-12T05:28:05.803Z,100941.44
2024-03-12T05:30:32.320Z,100945.88
2024-03-12T05:33:05.159Z,100941.78
2024-03-12T05:35:33.009Z,100957.06
2024-03-12T05:38:13.013Z,100954.47
2024-03-12T05:40:42.494Z,100954.44
2024-03-12T05:43:27.733Z,100960.75
2024-03-12T05:46:12.993Z,100964.88
2024-03-12T05:48:40.204Z,100966.00
2024-03-12T05:51:08.541Z,100965.63
2024-03-12T05:53:38.525Z,100966.72
2024-03-12T05:56:08.568Z,100977.91
2024-03-12T05:58:35.304Z,100978.59
2024-03-12T06:01:03.604Z,100983.03
2024-03-12T06:03:30.503Z,100978.59
2024-03-12T06:05:57.388Z,100987.91
2024-03-12T06:08:25.734Z,100984.63
2024-03-12T06:10:54.985Z,100979.78
2024-03-12T06:13:23.582Z,100980.16
2024-03-12T06:15:51.007Z,100991.34
2024-03-12T06:18:19.426Z,100984.97
2024-03-12T06:20:50.286Z,100987.56
2024-03-12T06:23:23.488Z,101004.66
2024-03-12T06:25:50.431Z,101019.59
2024-03-12T06:28:17.464Z,101006.16
2024-03-12T06:30:44.575Z,101011.34
2024-03-12T06:33:13.162Z,101017.34
2024-03-12T06:35:41.128Z,101016.91
2024-03-12T06:38:07.669Z,101022.47
2024-03-12T06:40:34.310Z,101024.72
2024-03-12T06:43:00.836Z,101018.78
2024-03-12T06:45:28.364Z,101026.94
2024-03-12T06:47:57.036Z,101024.78
2024-03-12T06:50:26.940Z,101024.41
2024-03-12T06:52:54.226Z,101021.09
2024-03-12T06:55:24.780Z,101020.69
2024-03-12T06:58:00.801Z,101017.38
2024-03-12T07:00:37.943Z,101015.13
2024-03-12T07:03:05.746Z,101021.47
2024-03-12T07:05:37.170Z,101030.81
2024-03-12T07:08:06.986Z,101033.84
2024-03-12T07:10:34.703Z,101044.31
2024-03-12T07:13:03.362Z,101047.97
2024-03-12T07:15:32.585Z,101056.56
2024-03-12T07:17:59.675Z,101052.81
2024-03-12T07:20:29.046Z,101056.19
2024-03-12T07:22:58.053Z,101059.91
2024-03-12T07:25:24.492Z,101056.50
2024-03-12T07:27:51.253Z,101060.22
2024-03-12T07:30:17.746Z,101062.38
2024-03-12T07:32:44.226Z,101068.44
2024-03-12T07:35:10.918Z,101070.69
2024-03-12T07:37:40.731Z,101075.56
2024-03-12T07:40:13.186Z,101070.53
2024-03-12T07:42:42.725Z,101083.47
2024-03-12T07:45:15.596Z,101086.38
2024-03-12T07:47:42.243Z,101081.84
2024-03-12T07:50:14.938Z,101083.72
2024-03-12T07:52:41.413Z,101090.84
2024-03-12T07:55:08.268Z,101085.94
2024-03-12T07:57:36.455Z,101087.41
2024-03-12T08:00:07.031Z,101094.81
2024-03-12T08:02:33.484Z,101094.84
2024-03-12T08:05:00.001Z,101099.94
2024-03-12T08:07:26.506Z,101098.50
2024-03-12T08:09:53.653Z,101100.03
2024-03-12T08:12:20.805Z,101107.44
2024-03-12T08:14:47.532Z,101104.13
2024-03-12T08:17:14.063Z,101105.53
2024-03-12T08:19:41.948Z,101108.84
2024-03-12T08:22:09.653Z,101114.81
2024-03-12T08:24:38.326Z,101112.97
2024-03-12T08:27:05.952Z,101112.63
2024-03-12T08:29:32.756Z,101112.66
2024-03-12T08:32:00.788Z,101117.84
2024-03-12T08:34:28.349Z,101122.72
2024-03-12T08:36:56.489Z,101127.56
2024-03-12T08:39:23.378Z,101122.78
2024-03-12T08:41:50.264Z,101124.59
2024-03-12T08:44:16.743Z,101129.44
2024-03-12T08:46:43.348Z,101131.63
2024-03-12T08:49:12.130Z,101124.63
2024-03-12T08:51:40.639Z,101141.72
2024-03-12T08:54:07.732Z,101134.31
2024-03-12T08:56:36.617Z,101136.53
2024-03-12T08:59:04.207Z,101134.34
2024-03-12T09:01:31.716Z,101139.47
2024-03-12T09:03:58.838Z,101138.00
2024-03-12T09:06:25.412Z,101143.84
2024-03-12T09:08:51.889Z,101141.72
2024-03-12T09:11:18.934Z,101151.72
2024-03-12T09:13:48.914Z,101150.63
2024-03-12T09:16:15.679Z,101152.88
2024-03-12T09:18:45.341Z,101156.09
2024-03-12T09:21:13.899Z,101160.97
2024-03-12T09:23:48.176Z,101162.09
2024-03-12T09:26:23.843Z,101162.09
2024-03-12T09:28:50.943Z,101162.84
2024-03-12T09:31:17.693Z,101164.63
2024-03-12T09:33:46.067Z,101162.47
2024-03-12T09:36:15.587Z,101167.59
2024-03-12T09:38:44.839Z,101167.66
2024-03-12T09:41:13.420Z,101166.56
2024-03-12T09:43:40.711Z,101170.69
2024-03-12T09:46:07.701Z,101165.50
2024-03-12T09:48:35.003Z,101170.03
2024-03-12T09:51:01.789Z,101172.72
2024-03-12T09:53:28.400Z,101175.25
2024-03-12T09:55:56.129Z,101182.13
2024-03-12T09:58:22.859Z,101185.75
2024-03-12T10:00:49.570Z,101186.47
2024-03-12T10:03:19.651Z,101184.97
2024-03-12T10:05:47.293Z,101189.53
2024-03-12T10:08:16.086Z,101186.41
2024-03-12T10:10:43.860Z,101193.91
2024-03-12T10:13:17.262Z,101192.38
2024-03-12T10:15:57.984Z,101187.97
2024-03-12T10:18:30.882Z,101198.72
2024-03-12T10:20:58.785Z,101190.13
2024-03-12T10:23:27.410Z,101189.44
2024-03-12T10:26:10.569Z,101196.88
2024-03-12T10:28:40.428Z,101199.16
2024-03-12T10:31:13.065Z,101199.97
2024-03-12T10:33:43.422Z,101196.94
2024-03-12T10:36:13.107Z,101198.44
2024-03-12T10:38:43.891Z,101195.78
2024-03-12T10:41:19.202Z,101201.78
2024-03-12T10:43:51.265Z,101204.81
2024-03-12T10:46:18.906Z,101201.56
2024-03-12T10:48:48.090Z,101207.50
2024-03-12T10:51:16.482Z,101207.84
2024-03-12T10:53:44.274Z,101201.59
2024-03-12T10:56:15.193Z,101208.66
2024-03-12T10:58:48.326Z,101206.00
2024-03-12T11:01:17.917Z,101208.19
2024-03-12T11:03:45.481Z,101211.91
2024-03-12T11:06:14.801Z,101217.19
2024-03-12T11:08:44.175Z,101215.00
2024-03-12T11:11:10.883Z,101215.69
2024-03-12T11:13:37.482Z,101218.22
2024-03-12T11:16:17.284Z,101221.97
2024-03-12T11:18:45.533Z,101217.94
2024-03-12T11:21:12.689Z,101220.09
2024-03-12T11:23:39.124Z,101220.84
2024-03-12T11:26:15.349Z,101225.94
2024-03-12T11:28:51.814Z,101227.03
2024-03-12T11:31:19.041Z,101221.84
2024-03-12T11:33:53.836Z,101219.69
2024-03-12T11:36:40.877Z,101224.25
2024-03-12T11:39:16.655Z,101229.16
2024-03-12T11:42:02.164Z,101229.19
2024-03-12T11:44:49.261Z,101229.56
2024-03-12T11:47:36.272Z,101233.25
2024-03-12T11:50:26.028Z,101237.28
2024-03-12T11:52:52.611Z,101233.94
2024-03-12T11:55:53.593Z,101235.34
2024-03-12T11:58:21.483Z,101246.09
2024-03-12T12:00:51.835Z,101244.59
2024-03-12T12:03:18.423Z,101247.50
2024-03-12T12:05:48.455Z,101248.94
2024-03-12T12:08:17.726Z,101246.03
2024-03-12T12:10:56.353Z,101251.16
2024-03-12T12:13:24.192Z,101256.34
2024-03-12T12:16:02.085Z,101250.34
2024-03-12T12:18:32.798Z,101258.41
2024-03-12T12:21:03.745Z,101257.44
2024-03-12T12:23:30.811Z,101253.50
2024-03-12T12:25:58.267Z,101257.22
2024-03-12T12:28:25.683Z,101257.94
2024-03-12T12:31:00.958Z,101253.50
2024-03-12T12:33:29.373Z,101257.22
2024-03-12T12:35:57.197Z,101261.66
2024-03-12T12:38:24.709Z,101254.09
2024-03-12T12:40:52.070Z,101256.69
2024-03-12T12:43:18.617Z,101262.72
2024-03-12T12:45:48.161Z,101254.81
2024-03-12T12:48:15.858Z,101271.84
2024-03-12T12:50:42.830Z,101261.38
2024-03-12T12:53:13.163Z,101266.56
2024-03-12T12:55:39.660Z,101273.72
2024-03-12T12:58:08.008Z,101271.91
2024-03-12T13:00:39.390Z,101266.78
2024-03-12T13:03:17.181Z,101275.50
2024-03-12T13:05:45.468Z,101270.97
2024-03-12T13:08:30.516Z,101265.38
2024-03-12T13:11:09.948Z,101275.28
2024-03-12T13:13:38.269Z,101274.84
2024-03-12T13:16:14.398Z,101272.84
2024-03-12T13:18:46.216Z,101278.75
2024-03-12T13:21:21.302Z,101272.06
2024-03-12T13:23:48.434Z,101282.69
2024-03-12T13:26:15.650Z,101274.50
2024-03-12T13:28:42.584Z,101275.13
2024-03-12T13:31:09.563Z,101267.31
2024-03-12T13:33:36.124Z,101272.88
2024-03-12T13:36:02.876Z,101273.97
2024-03-12T13:38:29.398Z,101272.03
2024-03-12T13:40:56.937Z,101274.31
2024-03-12T13:43:32.829Z,101261.94
2024-03-12T13:45:59.475Z,101267.56
2024-03-12T13:48:26.891Z,101269.75
2024-03-12T13:51:11.607Z,101264.94
2024-03-12T13:53:41.762Z,101273.59
2024-03-12T13:56:11.069Z,101272.81
2024-03-12T13:58:42.915Z,101272.47
2024-03-12T14:01:13.785Z,101272.53
2024-03-12T14:03:41.268Z,101277.72
2024-03-12T14:06:10.199Z,101273.97
2024-03-12T14:08:37.154Z,101277.31
2024-03-12T14:11:03.960Z,101279.94
2024-03-12T14:13:32.680Z,101277.66
2024-03-12T14:16:00.040Z,101276.16
2024-03-12T14:18:27.605Z,101278.00
2024-03-12T14:20:55.834Z,101282.50
2024-03-12T14:23:22.673Z,101285.84
2024-03-12T14:25:50.154Z,101285.84
2024-03-12T14:28:17.103Z,101285.16
2024-03-12T14:30:45.635Z,101285.16
2024-03-12T14:33:12.794Z,101286.28
2024-03-12T14:35:39.362Z,101285.06
2024-03-12T14:38:05.779Z,101287.25
2024-03-12T14:40:32.323Z,101281.25
2024-03-12T14:42:59.137Z,101284.25
2024-03-12T14:45:25.688Z,101285.34
2024-03-12T14:47:52.518Z,101283.47
2024-03-12T14:50:19.429Z,101289.75
2024-03-12T14:52:48.740Z,101288.66
2024-03-12T14:55:15.304Z,101292.34
2024-03-12T14:57:42.051Z,101296.84
2024-03-12T15:00:10.705Z,101289.84
2024-03-12T15:02:37.655Z,101292.72
2024-03-12T15:05:11.675Z,101293.00
2024-03-12T15:07:44.388Z,101293.09
2024-03-12T15:10:11.511Z,101294.56
2024-03-12T15:12:40.624Z,101286.38
2024-03-12T15:15:15.893Z,101290.00
2024-03-12T15:17:43.587Z,101291.50
2024-03-12T15:20:11.363Z,101286.59
2024-03-12T15:22:38.477Z,101289.28
2024-03-12T15:25:07.616Z,101283.25
2024-03-12T15:27:35.487Z,101289.66
2024-03-12T15:30:02.323Z,101291.63
2024-03-12T15:32:29.096Z,101288.31
2024-03-12T15:34:57.616Z,101292.34
2024-03-12T15:37:24.437Z,101286.41
2024-03-12T15:39:51.063Z,101289.44
2024-03-12T15:42:18.248Z,101278.31
2024-03-12T15:44:44.686Z,101279.09
2024-03-12T15:47:11.358Z,101279.00
2024-03-12T15:49:40.327Z,101282.78
2024-03-12T15:52:07.095Z,101282.09
2024-03-12T15:54:33.644Z,101279.84
2024-03-12T15:57:00.133Z,101272.44
2024-03-12T15:59:27.177Z,101271.00
2024-03-12T16:01:54.849Z,101275.84
2024-03-12T16:04:21.612Z,101288.91
2024-03-12T16:06:48.177Z,101286.66
2024-03-12T16:09:17.848Z,101279.59
2024-03-12T16:11:44.708Z,101271.78
2024-03-12T16:14:13.128Z,101281.44
2024-03-12T16:16:40.638Z,101280.69
2024-03-12T16:19:07.988Z,101285.19
2024-03-12T16:21:35.326Z,101287.75
2024-03-12T16:24:02.372Z,101282.94
2024-03-12T16:26:29.515Z,101272.81
2024-03-12T16:28:56.002Z,101274.31
2024-03-12T16:31:22.566Z,101275.44
2024-03-12T16:33:49.615Z,101276.22
2024-03-12T16:36:19.305Z,101277.31
2024-03-12T16:38:47.578Z,101273.97
2024-03-12T16:41:15.710Z,101277.75
2024-03-12T16:43:42.962Z,101276.97
2024-03-12T16:46:10.753Z,101277.31
2024-03-12T16:48:40.927Z,101277.31
2024-03-12T16:51:08.350Z,101279.19
2024-03-12T16:53:35.007Z,101276.91
2024-03-12T16:56:02.076Z,101275.00
2024-03-12T16:58:30.147Z,101274.97
2024-03-12T17:00:59.258Z,101276.06
2024-03-12T17:03:26.928Z,101274.63
2024-03-12T17:05:55.755Z,101278.31
2024-03-12T17:08:22.338Z,101277.84
2024-03-12T17:10:49.551Z,101278.25
2024-03-12T17:13:17.993Z,101280.44
2024-03-12T17:15:46.720Z,101275.97
2024-03-12T17:18:25.269Z,101270.41
2024-03-12T17:20:53.018Z,101271.53
2024-03-12T17:23:19.588Z,101274.56
2024-03-12T17:25:46.275Z,101277.97
2024-03-12T17:28:13.218Z,101278.34
2024-03-12T17:30:40.143Z,101266.75
2024-03-12T17:33:08.262Z,101276.06
2024-03-12T17:35:34.950Z,101275.28
2024-03-12T17:38:02.527Z,101270.06
2024-03-12T17:40:29.945Z,101278.25
2024-03-12T17:42:56.674Z,101273.03
2024-03-12T17:45:24.832Z,101280.44
2024-03-12T17:47:52.824Z,101276.31
2024-03-12T17:50:24.224Z,101282.66
2024-03-12T17:52:52.528Z,101281.91
2024-03-12T17:55:20.365Z,101281.53
2024-03-12T17:57:47.502Z,101290.06
2024-03-12T18:00:15.573Z,101287.06
2024-03-12T18:02:44.970Z,101288.94
2024-03-12T18:05:12.815Z,101285.94
2024-03-12T18:07:43.760Z,101287.78
2024-03-12T18:10:20.605Z,101296.31
2024-03-12T18:12:48.174Z,101300.03
2024-03-12T18:15:19.030Z,101291.41
2024-03-12T18:17:46.233Z,101296.22
2024-03-12T18:20:14.088Z,101292.94
2024-03-12T18:22:41.097Z,101295.19
2024-03-12T18:25:12.465Z,101285.19
2024-03-12T18:27:43.924Z,101292.25
2024-03-12T18:30:11.366Z,101295.91
2024-03-12T18:32:41.393Z,101289.91
2024-03-12T18:35:08.970Z,101297.72
2024-03-12T18:37:39.560Z,101296.19
2024-03-12T18:40:12.633Z,101296.84
2024-03-12T18:42:40.677Z,101303.16
2024-03-12T18:45:08.123Z,101298.25
2024-03-12T18:47:35.258Z,101297.84
2024-03-12T18:50:02.096Z,101294.13
2024-03-12T18:52:28.954Z,101295.56
2024-03-12T18:54:55.802Z,101285.13
2024-03-12T18:57:22.559Z,101294.03
2024-03-12T18:59:51.073Z,101293.97
2024-03-12T19:02:27.245Z,101298.00
2024-03-12T19:04:59.473Z,101298.69
2024-03-12T19:07:27.226Z,101302.03
2024-03-12T19:09:54.155Z,101297.81
2024-03-12T19:12:20.859Z,101299.66
2024-03-12T19:14:47.764Z,101299.97
2024-03-12T19:17:16.223Z,101299.53
2024-03-12T19:19:42.932Z,101299.88
2024-03-12T19:22:11.694Z,101298.00
2024-03-12T19:24:38.812Z,101297.94
2024-03-12T19:27:07.539Z,101292.25
2024-03-12T19:29:36.397Z,101296.34
2024-03-12T19:32:04.924Z,101297.38
2024-03-12T19:34:33.956Z,101293.97
2024-03-12T19:37:02.781Z,101288.72
2024-03-12T19:39:30.917Z,101289.47
2024-03-12T19:41:57.769Z,101286.03
2024-03-12T19:44:24.335Z,101288.63
2024-03-12T19:46:51.131Z,101284.91
2024-03-12T19:49:17.923Z,101285.25
2024-03-12T19:51:44.634Z,101281.91
2024-03-12T19:54:16.888Z,101282.31
2024-03-12T19:56:43.342Z,101282.69
2024-03-12T19:59:10.378Z,101280.09
2024-03-12T20:01:38.884Z,101280.91
2024-03-12T20:04:05.565Z,101277.28
2024-03-12T20:06:33.267Z,101279.53
2024-03-12T20:09:01.431Z,101276.94
2024-03-12T20:11:28.013Z,101273.25
2024-03-12T20:13:56.190Z,101268.81
2024-03-12T20:16:22.869Z,101272.19
2024-03-12T20:18:50.241Z,101262.16
2024-03-12T20:21:17.968Z,101260.28
2024-03-12T20:23:44.656Z,101256.97
2024-03-12T20:26:11.122Z,101259.16
2024-03-12T20:28:37.712Z,101263.63
2024-03-12T20:31:06.895Z,101253.22
2024-03-12T20:33:33.645Z,101258.06
2024-03-12T20:36:02.360Z,101258.72
2024-03-12T20:38:30.004Z,101256.13
2024-03-12T20:40:56.510Z,101254.28
2024-03-12T20:43:23.058Z,101259.16
2024-03-12T20:45:50.350Z,101256.97
2024-03-12T20:48:16.986Z,101252.50
2024-03-12T20:50:44.315Z,101258.44
2024-03-12T20:53:13.758Z,101252.44
2024-03-12T20:55:40.530Z,101256.88
2024-03-12T20:58:07.130Z,101256.13
2024-03-12T21:00:34.517Z,101258.34
2024-03-12T21:03:01.194Z,101253.44
2024-03-12T21:05:28.398Z,101255.28
2024-03-12T21:07:54.936Z,101253.84
2024-03-12T21:10:22.904Z,101254.94
2024-03-12T21:12:51.734Z,101258.25
2024-03-12T21:15:19.171Z,101264.16
2024-03-12T21:17:46.384Z,101263.34
2024-03-12T21:20:34.299Z,101257.41
2024-03-12T21:23:01.183Z,101257.06
2024-03-12T21:25:27.870Z,101252.94
2024-03-12T21:27:54.527Z,101247.00
2024-03-12T21:30:22.997Z,101249.91
2024-03-12T21:32:50.599Z,101248.41
2024-03-12T21:35:17.217Z,101248.72
2024-03-12T21:37:43.715Z,101254.97
2024-03-12T21:40:12.444Z,101256.41
2024-03-12T21:42:39.914Z,101260.06
2024-03-12T21:45:13.449Z,101259.25
2024-03-12T21:47:41.079Z,101262.88
2024-03-12T21:50:15.031Z,101261.31
2024-03-12T21:52:42.209Z,101263.84
2024-03-12T21:55:11.375Z,101253.81
2024-03-12T21:57:39.499Z,101261.25
2024-03-12T22:00:11.870Z,101258.25
2024-03-12T22:02:39.247Z,101253.75
2024-03-12T22:05:08.715Z,101252.94
2024-03-12T22:07:38.256Z,101253.63
2024-03-12T22:10:06.104Z,101247.66
2024-03-12T22:12:32.620Z,101243.97
2024-03-12T22:14:59.098Z,101236.50
2024-03-12T22:17:25.669Z,101242.91
2024-03-12T22:19:52.124Z,101246.22
2024-03-12T22:22:18.655Z,101243.22
2024-03-12T22:24:45.227Z,101237.28
2024-03-12T22:27:11.695Z,101238.31
2024-03-12T22:29:39.819Z,101244.25
2024-03-12T22:32:09.479Z,101242.41
2024-03-12T22:34:36.103Z,101242.41
2024-03-12T22:37:02.646Z,101249.13
2024-03-12T22:39:29.421Z,101241.66
2024-03-12T22:41:56.581Z,101242.75
2024-03-12T22:44:23.214Z,101247.63
2024-03-12T22:46:50.541Z,101252.41
2024-03-12T22:49:17.145Z,101257.16
2024-03-12T22:51:44.229Z,101259.41
2024-03-12T22:54:11.304Z,101263.41
2024-03-12T22:56:38.793Z,101272.31
2024-03-12T22:59:05.521Z,101271.16
2024-03-12T23:01:32.433Z,101264.03
2024-03-12T23:03:59.945Z,101259.94
2024-03-12T23:06:26.624Z,101251.34
2024-03-12T23:08:53.461Z,101247.25
2024-03-12T23:11:22.459Z,101248.00
2024-03-12T23:13:49.068Z,101240.59
2024-03-12T23:16:16.229Z,101243.53
2024-03-12T23:18:43.176Z,101241.28
2024-03-12T23:21:11.426Z,101245.72
2024-03-12T23:23:38.854Z,101246.47
2024-03-12T23:26:05.693Z,101236.09
2024-03-12T23:28:32.225Z,101223.09
2024-03-12T23:30:58.921Z,101229.34
2024-03-12T23:33:26.219Z,101242.31
2024-03-12T23:35:52.865Z,101239.72
2024-03-12T23:38:20.056Z,101239.72
2024-03-12T23:40:46.749Z,101240.81
2024-03-12T23:43:13.315Z,101243.72
2024-03-12T23:45:39.856Z,101247.44
2024-03-12T23:48:08.615Z,101239.25
2024-03-12T23:50:36.934Z,101236.66
2024-03-12T23:53:06.465Z,101238.09
2024-03-12T23:55:33.037Z,101240.69
2024-03-12T23:58:00.749Z,101238.09
